createdAt,value
2022-07-25T00:00:03.194Z,1694
2022-07-25T00:01:03.347Z,1920
2022-07-25T00:02:03.232Z,2009
2022-07-25T00:03:03.223Z,1970
2022-07-25T00:04:03.563Z,1762
2022-07-25T00:05:03.381Z,1839
2022-07-25T00:06:03.391Z,2036
2022-07-25T00:07:03.214Z,1787
2022-07-25T00:08:03.177Z,1803
2022-07-25T00:09:03.177Z,2080
2022-07-25T00:10:03.176Z,2090
2022-07-25T00:11:03.394Z,1774
2022-07-25T00:12:03.179Z,2080
2022-07-25T00:13:03.231Z,2102
2022-07-25T00:14:03.346Z,1996
2022-07-25T00:15:03.182Z,1736
2022-07-25T00:16:03.405Z,2022
2022-07-25T00:17:03.189Z,1975
2022-07-25T00:18:03.176Z,1787
2022-07-25T00:19:03.180Z,1756
2022-07-25T00:20:03.183Z,1996
2022-07-25T00:21:03.388Z,2096
2022-07-25T00:22:03.123Z,1780
2022-07-25T00:23:03.115Z,1772
2022-07-25T00:24:03.442Z,1985
2022-07-25T00:25:03.191Z,2056
2022-07-25T00:26:03.361Z,2006
2022-07-25T00:27:03.204Z,1617
2022-07-25T00:28:03.258Z,1712
2022-07-25T00:29:03.249Z,1962
2022-07-25T00:31:03.512Z,1723
2022-07-25T00:32:03.183Z,1774
2022-07-25T00:33:03.182Z,2052
2022-07-25T00:34:03.361Z,2004
2022-07-25T00:35:03.186Z,1858
2022-07-25T00:36:03.410Z,1627
2022-07-25T00:37:03.184Z,1933
2022-07-25T00:38:03.197Z,1975
2022-07-25T00:39:03.191Z,1741
2022-07-25T00:40:03.203Z,1723
2022-07-25T00:41:03.384Z,1975
2022-07-25T00:42:03.218Z,2015
2022-07-25T00:43:03.206Z,1736
2022-07-25T00:44:03.419Z,1953
2022-07-25T00:45:03.184Z,2004
2022-07-25T00:46:03.425Z,1870
2022-07-25T00:47:03.190Z,1772
2022-07-25T00:48:03.197Z,1736
2022-07-25T00:49:03.268Z,1964
2022-07-25T00:50:03.189Z,1975
2022-07-25T00:51:03.462Z,1698
2022-07-25T00:52:03.192Z,1756
2022-07-25T00:53:03.202Z,2033
2022-07-25T00:54:03.552Z,1964
2022-07-25T00:55:03.197Z,1707
2022-07-25T00:56:03.388Z,1975
2022-07-25T00:57:03.221Z,1822
2022-07-25T00:58:03.207Z,1558
2022-07-25T00:59:03.205Z,2015
2022-07-25T01:00:03.207Z,1964
2022-07-25T01:01:03.441Z,1975
2022-07-25T01:02:03.756Z,1707
2022-07-25T01:03:03.272Z,1970
2022-07-25T01:04:03.404Z,2025
2022-07-25T01:05:03.204Z,1733
2022-07-25T01:06:03.397Z,1994
2022-07-25T01:07:03.213Z,1964
2022-07-25T01:08:03.218Z,1736
2022-07-25T01:09:03.220Z,1707
2022-07-25T01:11:03.385Z,1975
2022-07-25T01:12:03.207Z,1733
2022-07-25T01:13:03.225Z,1970
2022-07-25T01:14:03.333Z,1964
2022-07-25T01:16:03.501Z,1659
2022-07-25T01:17:03.226Z,1928
2022-07-25T01:18:03.202Z,1920
2022-07-25T01:19:03.229Z,1928
2022-07-25T01:21:03.384Z,1953
2022-07-25T01:22:03.208Z,1890
2022-07-25T01:23:03.264Z,1667
2022-07-25T01:24:03.522Z,2118
2022-07-25T01:26:03.430Z,1825
2022-07-25T01:27:03.260Z,2108
2022-07-25T01:28:03.242Z,2096
2022-07-25T01:29:03.261Z,1813
2022-07-25T01:31:03.430Z,2064
2022-07-25T01:32:03.237Z,1738
2022-07-25T01:33:06.917Z,1738
2022-07-25T01:34:03.421Z,1996
2022-07-25T01:36:03.396Z,1627
2022-07-25T01:37:03.229Z,1841
2022-07-25T01:38:03.268Z,2004
2022-07-25T01:39:03.238Z,1710
2022-07-25T01:41:03.390Z,1975
2022-07-25T01:42:03.263Z,1749
2022-07-25T01:43:03.243Z,2074
2022-07-25T01:44:03.526Z,2020
2022-07-25T01:46:03.416Z,1726
2022-07-25T01:47:03.272Z,1994
2022-07-25T01:48:03.303Z,2027
2022-07-25T01:49:03.337Z,1731
2022-07-25T01:51:03.403Z,1994
2022-07-25T01:52:03.250Z,2036
2022-07-25T01:53:03.239Z,1720
2022-07-25T01:54:03.556Z,1999
2022-07-25T01:56:03.464Z,1746
2022-07-25T01:57:03.245Z,2020
2022-07-25T01:58:03.254Z,1865
2022-07-25T01:59:03.256Z,1659
2022-07-25T02:01:03.454Z,1988
2022-07-25T02:02:03.359Z,1741
2022-07-25T02:03:03.252Z,1964
2022-07-25T02:04:03.528Z,2020
2022-07-25T02:06:03.405Z,1738
2022-07-25T02:07:03.261Z,2006
2022-07-25T02:08:03.278Z,1951
2022-07-25T02:09:03.256Z,1741
2022-07-25T02:11:03.449Z,2074
2022-07-25T02:12:03.278Z,1712
2022-07-25T02:13:03.259Z,1854
2022-07-25T02:14:03.493Z,2058
2022-07-25T02:16:03.412Z,1978
2022-07-25T02:17:03.278Z,1994
2022-07-25T02:18:03.281Z,1680
2022-07-25T02:19:03.267Z,1689
2022-07-25T02:21:03.450Z,1916
2022-07-25T02:22:03.281Z,1720
2022-07-25T02:23:03.267Z,2041
2022-07-25T02:24:03.450Z,2041
2022-07-25T02:26:03.436Z,1964
2022-07-25T02:27:03.159Z,2033
2022-07-25T02:28:03.176Z,1697
2022-07-25T02:29:03.173Z,1911
2022-07-25T02:31:03.496Z,1692
2022-07-25T02:32:03.171Z,1895
2022-07-25T02:33:03.190Z,1936
2022-07-25T02:34:03.272Z,1659
2022-07-25T02:36:03.474Z,1936
2022-07-25T02:37:03.163Z,1653
2022-07-25T02:38:03.176Z,2006
2022-07-25T02:39:03.169Z,1813
2022-07-25T02:41:03.476Z,1964
2022-07-25T02:42:03.173Z,1978
2022-07-25T02:43:03.158Z,1726
2022-07-25T02:44:03.334Z,1948
2022-07-25T02:46:03.470Z,1723
2022-07-25T02:47:03.177Z,1911
2022-07-25T02:48:03.152Z,1983
2022-07-25T02:49:03.245Z,1744
2022-07-25T02:51:03.479Z,1940
2022-07-25T02:52:03.157Z,1733
2022-07-25T02:53:03.176Z,1970
2022-07-25T02:54:03.154Z,1983
2022-07-25T02:56:03.462Z,1877
2022-07-25T02:57:03.158Z,1936
2022-07-25T02:58:03.163Z,1741
2022-07-25T02:59:03.158Z,1991
2022-07-25T03:01:03.504Z,1762
2022-07-25T03:02:03.178Z,1964
2022-07-25T03:03:03.170Z,1973
2022-07-25T03:04:03.357Z,1749
2022-07-25T03:06:03.491Z,2015
2022-07-25T03:07:03.194Z,2036
2022-07-25T03:08:03.199Z,1762
2022-07-25T03:09:03.187Z,2015
2022-07-25T03:11:03.491Z,1756
2022-07-25T03:12:03.199Z,1948
2022-07-25T03:13:03.200Z,1970
2022-07-25T03:14:03.336Z,1609
2022-07-25T03:16:03.477Z,2012
2022-07-25T03:17:03.266Z,1744
2022-07-25T03:18:03.204Z,1970
2022-07-25T03:19:03.167Z,2001
2022-07-25T03:21:03.467Z,1948
2022-07-25T03:22:03.186Z,1991
2022-07-25T03:23:03.176Z,1749
2022-07-25T03:24:03.219Z,1790
2022-07-25T03:26:03.495Z,1723
2022-07-25T03:27:03.167Z,1996
2022-07-25T03:28:03.190Z,1988
2022-07-25T03:29:03.177Z,1590
2022-07-25T03:31:03.470Z,1922
2022-07-25T03:32:03.253Z,1956
2022-07-25T03:33:03.204Z,1774
2022-07-25T03:34:03.444Z,1988
2022-07-25T03:36:03.504Z,1738
2022-07-25T03:37:03.197Z,1978
2022-07-25T03:38:03.200Z,1948
2022-07-25T03:39:05.421Z,1741
2022-07-25T03:41:03.477Z,1854
2022-07-25T03:42:03.201Z,1754
2022-07-25T03:43:03.199Z,1970
2022-07-25T03:44:03.588Z,1978
2022-07-25T03:46:03.538Z,2025
2022-07-25T03:47:03.213Z,2038
2022-07-25T03:48:03.206Z,1738
2022-07-25T03:49:03.233Z,1983
2022-07-25T03:51:06.805Z,2033
2022-07-25T03:52:03.201Z,1749
2022-07-25T03:53:03.178Z,2033
2022-07-25T03:54:03.627Z,2012
2022-07-25T03:56:03.506Z,1836
2022-07-25T03:57:03.211Z,1873
2022-07-25T03:58:03.205Z,1674
2022-07-25T03:59:03.214Z,1942
2022-07-25T04:01:03.585Z,1692
2022-07-25T04:02:03.235Z,1601
2022-07-25T04:03:03.210Z,1836
2022-07-25T04:04:03.309Z,1942
2022-07-25T04:06:03.495Z,1738
2022-07-25T04:07:03.209Z,1931
2022-07-25T04:08:03.199Z,1983
2022-07-25T04:09:03.207Z,1728
2022-07-25T04:11:03.514Z,1839
2022-07-25T04:12:03.200Z,1798
2022-07-25T04:13:03.211Z,2004
2022-07-25T04:14:03.374Z,1746
2022-07-25T04:16:03.581Z,1798
2022-07-25T04:17:03.247Z,2070
2022-07-25T04:18:03.214Z,2128
2022-07-25T04:19:03.223Z,1985
2022-07-25T04:21:03.524Z,1738
2022-07-25T04:22:03.228Z,1657
2022-07-25T04:23:03.231Z,1650
2022-07-25T04:24:03.616Z,1626
2022-07-25T04:26:03.494Z,1685
2022-07-25T04:27:03.230Z,1835
2022-07-25T04:28:03.196Z,1790
2022-07-25T04:29:03.244Z,1813
2022-07-25T04:31:03.503Z,1795
2022-07-25T04:32:03.273Z,1806
2022-07-25T04:33:03.239Z,1792
2022-07-25T04:34:03.450Z,1777
2022-07-25T04:36:03.500Z,1792
2022-07-25T04:37:03.203Z,1780
2022-07-25T04:38:03.221Z,1787
2022-07-25T04:39:03.214Z,1754
2022-07-25T04:41:03.529Z,1772
2022-07-25T04:42:03.321Z,1759
2022-07-25T04:43:03.334Z,1520
2022-07-25T04:44:03.693Z,1553
2022-07-25T04:46:03.613Z,1780
2022-07-25T04:47:03.377Z,1759
2022-07-25T04:48:03.335Z,1657
2022-07-25T04:49:03.378Z,1532
2022-07-25T04:51:03.533Z,1795
2022-07-25T04:52:03.343Z,1749
2022-07-25T04:53:03.333Z,1756
2022-07-25T04:54:03.617Z,1777
2022-07-25T04:56:03.527Z,1767
2022-07-25T04:57:03.211Z,1614
2022-07-25T04:58:03.234Z,1736
2022-07-25T04:59:06.234Z,1484
2022-07-25T05:01:03.558Z,1549
2022-07-25T05:02:03.294Z,1627
2022-07-25T05:03:03.256Z,1367
2022-07-25T05:04:03.442Z,1666
2022-07-25T05:06:03.541Z,1435
2022-07-25T05:07:03.249Z,1379
2022-07-25T05:08:03.255Z,1621
2022-07-25T05:09:03.247Z,1606
2022-07-25T05:11:03.547Z,1631
2022-07-25T05:12:03.260Z,1258
2022-07-25T05:13:03.222Z,1357
2022-07-25T05:14:03.463Z,1407
2022-07-25T05:16:03.547Z,1546
2022-07-25T05:17:03.227Z,1348
2022-07-25T05:18:03.244Z,1569
2022-07-25T05:19:03.253Z,1466
2022-07-25T05:21:03.518Z,1528
2022-07-25T05:22:03.251Z,1259
2022-07-25T05:23:03.246Z,1453
2022-07-25T05:24:03.498Z,1468
2022-07-25T05:26:03.520Z,1484
2022-07-25T05:27:03.256Z,1367
2022-07-25T05:28:03.251Z,1060
2022-07-25T05:29:03.353Z,1170
2022-07-25T05:31:03.551Z,1341
2022-07-25T05:32:03.444Z,1163
2022-07-25T05:33:03.364Z,1273
2022-07-25T05:34:03.772Z,1352
2022-07-25T05:36:03.531Z,1139
2022-07-25T05:37:03.362Z,1264
2022-07-25T05:38:03.324Z,1258
2022-07-25T05:39:03.358Z,1248
2022-07-25T05:41:03.560Z,1041
2022-07-25T05:42:03.334Z,1310
2022-07-25T05:43:03.760Z,1303
2022-07-25T05:44:03.619Z,1307
2022-07-25T05:46:03.588Z,1114
2022-07-25T05:47:03.412Z,1289
2022-07-25T05:48:03.365Z,1289
2022-07-25T05:49:03.449Z,1286
2022-07-25T05:51:03.563Z,1100
2022-07-25T05:52:03.370Z,1232
2022-07-25T05:53:03.377Z,1245
2022-07-25T05:54:03.631Z,1204
2022-07-25T05:56:03.544Z,1008
2022-07-25T05:57:03.390Z,1177
2022-07-25T05:58:03.389Z,997
2022-07-25T05:59:03.369Z,1128
2022-07-25T06:01:03.576Z,1185
2022-07-25T06:02:03.436Z,983
2022-07-25T06:03:03.479Z,966
2022-07-25T06:04:03.582Z,957
2022-07-25T06:06:03.553Z,1128
2022-07-25T06:07:03.371Z,1105
2022-07-25T06:08:03.375Z,1100
2022-07-25T06:09:03.392Z,935
2022-07-25T06:11:03.556Z,1125
2022-07-25T06:12:03.373Z,969
2022-07-25T06:13:03.387Z,1130
2022-07-25T06:14:03.576Z,1040
2022-07-25T06:16:03.687Z,1078
2022-07-25T06:17:03.356Z,924
2022-07-25T06:18:03.357Z,915
2022-07-25T06:19:03.364Z,1081
2022-07-25T06:21:03.555Z,1074
2022-07-25T06:22:03.380Z,1040
2022-07-25T06:23:03.375Z,1047
2022-07-25T06:24:03.512Z,890
2022-07-25T06:26:03.563Z,887
2022-07-25T06:27:03.353Z,878
2022-07-25T06:28:03.350Z,1049
2022-07-25T06:29:03.361Z,900
2022-07-25T06:31:03.528Z,1069
2022-07-25T06:32:03.288Z,1069
2022-07-25T06:33:03.396Z,966
2022-07-25T06:34:03.733Z,1091
2022-07-25T06:36:03.578Z,1107
2022-07-25T06:37:03.299Z,1105
2022-07-25T06:38:03.304Z,1113
2022-07-25T06:39:03.310Z,1130
2022-07-25T06:41:03.585Z,988
2022-07-25T06:42:03.299Z,1173
2022-07-25T06:43:03.319Z,1185
2022-07-25T06:44:03.430Z,1007
2022-07-25T06:46:03.603Z,1196
2022-07-25T06:47:03.481Z,1266
2022-07-25T06:48:03.321Z,1107
2022-07-25T06:49:03.371Z,1111
2022-07-25T06:51:03.575Z,1249
2022-07-25T06:52:03.306Z,1089
2022-07-25T06:53:03.290Z,1108
2022-07-25T06:54:03.567Z,1116
2022-07-25T06:56:03.536Z,1153
2022-07-25T06:57:03.410Z,1195
2022-07-25T06:58:03.403Z,1214
2022-07-25T06:59:03.315Z,1476
2022-07-25T07:01:03.642Z,1235
2022-07-25T07:02:03.315Z,1253
2022-07-25T07:03:03.360Z,1509
2022-07-25T07:04:03.493Z,1566
2022-07-25T07:06:03.581Z,1336
2022-07-25T07:07:03.408Z,1550
2022-07-25T07:08:03.418Z,1606
2022-07-25T07:09:03.416Z,1626
2022-07-25T07:11:03.583Z,1663
2022-07-25T07:12:03.326Z,1717
2022-07-25T07:13:03.307Z,1726
2022-07-25T07:14:03.739Z,1703
2022-07-25T07:16:03.657Z,1478
2022-07-25T07:17:03.431Z,1559
2022-07-25T07:18:03.452Z,1627
2022-07-25T07:19:03.589Z,1996
2022-07-25T07:21:03.582Z,1851
2022-07-25T07:22:03.324Z,2027
2022-07-25T07:23:03.322Z,2118
2022-07-25T07:24:03.304Z,2017
2022-07-25T07:26:03.588Z,2180
2022-07-25T07:27:03.414Z,1790
2022-07-25T07:28:03.423Z,2193
2022-07-25T07:29:03.685Z,2182
2022-07-25T07:31:16.031Z,1877
2022-07-25T07:32:03.406Z,1777
2022-07-25T07:33:03.321Z,1798
2022-07-25T07:34:03.332Z,2222
2022-07-25T07:36:03.636Z,2222
2022-07-25T07:37:03.462Z,2544
2022-07-25T07:38:03.423Z,2146
2022-07-25T07:39:03.432Z,2062
2022-07-25T07:41:03.601Z,2214
2022-07-25T07:42:03.312Z,2739
2022-07-25T07:43:03.357Z,2836
2022-07-25T07:44:03.343Z,2788
2022-07-25T07:46:03.658Z,2378
2022-07-25T07:47:03.380Z,2530
2022-07-25T07:48:03.309Z,2558
2022-07-25T07:49:03.560Z,2571
2022-07-25T07:51:03.641Z,2967
2022-07-25T07:52:03.440Z,2900
2022-07-25T07:53:03.345Z,2939
2022-07-25T07:54:03.315Z,2924
2022-07-25T07:56:03.614Z,2993
2022-07-25T07:57:03.314Z,3072
2022-07-25T07:58:03.340Z,2605
2022-07-25T07:59:03.583Z,2593
2022-07-25T08:01:03.631Z,2571
2022-07-25T08:02:03.378Z,3158
2022-07-25T08:03:03.415Z,3221
2022-07-25T08:04:03.342Z,3158
2022-07-25T08:06:03.651Z,2696
2022-07-25T08:07:03.444Z,2712
2022-07-25T08:08:03.447Z,2699
2022-07-25T08:09:03.713Z,3261
2022-07-25T08:11:03.622Z,3305
2022-07-25T08:12:03.359Z,3305
2022-07-25T08:13:03.331Z,3243
2022-07-25T08:14:03.425Z,3394
2022-07-25T08:16:03.884Z,3227
2022-07-25T08:17:03.459Z,3152
2022-07-25T08:18:03.361Z,2970
2022-07-25T08:19:03.368Z,3052
2022-07-25T08:21:03.636Z,3170
2022-07-25T08:22:03.331Z,3179
2022-07-25T08:23:03.351Z,3134
2022-07-25T08:24:03.561Z,3072
2022-07-25T08:26:03.666Z,2625
2022-07-25T08:27:03.369Z,2637
2022-07-25T08:28:03.376Z,2637
2022-07-25T08:29:17.409Z,3246
2022-07-25T08:31:03.711Z,2668
2022-07-25T08:32:03.367Z,3212
2022-07-25T08:33:03.366Z,2637
2022-07-25T08:34:03.403Z,2610
2022-07-25T08:36:03.601Z,3194
2022-07-25T08:37:03.437Z,3167
2022-07-25T08:38:03.462Z,3167
2022-07-25T08:39:03.523Z,3212
2022-07-25T08:41:03.635Z,3167
2022-07-25T08:42:06.525Z,3110
2022-07-25T08:43:03.427Z,3110
2022-07-25T08:44:03.704Z,2511
2022-07-25T08:46:03.707Z,2555
2022-07-25T08:47:03.458Z,2555
2022-07-25T08:48:03.465Z,3064
2022-07-25T08:49:03.504Z,3185
2022-07-25T08:51:03.671Z,3010
2022-07-25T08:52:03.498Z,2962
2022-07-25T08:53:31.279Z,3098
2022-07-25T08:54:03.732Z,3098
2022-07-25T08:56:09.909Z,2625
2022-07-25T08:57:03.487Z,2494
2022-07-25T08:58:03.475Z,2482
2022-07-25T08:59:03.470Z,2494
2022-07-25T09:01:03.621Z,2962
2022-07-25T09:02:03.493Z,3194
2022-07-25T09:03:03.525Z,3255
2022-07-25T09:04:03.771Z,2719
2022-07-25T09:06:03.654Z,2777
2022-07-25T09:07:07.774Z,2625
2022-07-25T09:08:03.488Z,3125
2022-07-25T09:09:03.476Z,3049
2022-07-25T09:11:03.683Z,3411
2022-07-25T09:12:03.504Z,2796
2022-07-25T09:13:03.479Z,2719
2022-07-25T09:14:03.588Z,2706
2022-07-25T09:16:03.711Z,3369
2022-07-25T09:17:03.509Z,3359
2022-07-25T09:18:03.480Z,3424
2022-07-25T09:19:03.487Z,2936
2022-07-25T09:21:03.642Z,3576
2022-07-25T09:22:03.480Z,3518
2022-07-25T09:23:03.491Z,3149
2022-07-25T09:24:03.710Z,2866
2022-07-25T09:26:03.638Z,3498
2022-07-25T09:27:03.509Z,3663
2022-07-25T09:28:03.486Z,3472
2022-07-25T09:29:03.512Z,3562
2022-07-25T09:31:03.792Z,3713
2022-07-25T09:32:03.494Z,3755
2022-07-25T09:33:03.532Z,3755
2022-07-25T09:34:03.655Z,3802
2022-07-25T09:36:03.710Z,3702
2022-07-25T09:37:03.542Z,3200
2022-07-25T09:38:03.412Z,3618
2022-07-25T09:39:03.408Z,3642
2022-07-25T09:41:03.710Z,3642
2022-07-25T09:42:03.391Z,3167
2022-07-25T09:43:03.398Z,3434
2022-07-25T09:44:03.716Z,3488
2022-07-25T09:46:03.764Z,3607
2022-07-25T09:47:03.381Z,3545
2022-07-25T09:48:03.468Z,3525
2022-07-25T09:49:03.566Z,2727
2022-07-25T09:51:03.665Z,2785
2022-07-25T09:52:03.571Z,2704
2022-07-25T09:53:03.491Z,3324
2022-07-25T09:54:03.709Z,3394
2022-07-25T09:56:03.686Z,3545
2022-07-25T09:57:03.511Z,3656
2022-07-25T09:58:03.518Z,3674
2022-07-25T09:59:03.479Z,3519
2022-07-25T10:01:03.765Z,2929
2022-07-25T10:02:03.597Z,3049
2022-07-25T10:03:03.597Z,3064
2022-07-25T10:04:03.659Z,3802
2022-07-25T10:06:03.676Z,3828
2022-07-25T10:07:03.483Z,3064
2022-07-25T10:08:03.493Z,3582
2022-07-25T10:09:03.505Z,3635
2022-07-25T10:12:03.513Z,2970
2022-07-25T10:13:07.994Z,3572
2022-07-25T10:14:03.646Z,3652
2022-07-25T10:16:03.696Z,3131
2022-07-25T10:17:03.600Z,3167
2022-07-25T10:18:03.523Z,3188
2022-07-25T10:19:03.513Z,3846
2022-07-25T10:21:13.550Z,3883
2022-07-25T10:22:03.500Z,3751
2022-07-25T10:23:03.509Z,3723
2022-07-25T10:24:03.865Z,3813
2022-07-25T10:26:03.719Z,3158
2022-07-25T10:27:03.497Z,3227
2022-07-25T10:28:03.493Z,3246
2022-07-25T10:29:03.527Z,3314
2022-07-25T10:31:03.773Z,4044
2022-07-25T10:32:03.529Z,3227
2022-07-25T10:33:03.496Z,3308
2022-07-25T10:34:03.776Z,4079
2022-07-25T10:36:03.703Z,3420
2022-07-25T10:37:03.523Z,4146
2022-07-25T10:38:03.559Z,3853
2022-07-25T10:39:03.544Z,3424
2022-07-25T10:42:03.519Z,3529
2022-07-25T10:43:03.526Z,3582
2022-07-25T10:44:03.695Z,4339
2022-07-25T10:46:03.743Z,3663
2022-07-25T10:47:03.502Z,3887
2022-07-25T10:48:03.523Z,4431
2022-07-25T10:49:03.724Z,3597
2022-07-25T10:52:03.528Z,3948
2022-07-25T10:53:03.512Z,3883
2022-07-25T10:54:03.520Z,3635
2022-07-25T10:57:03.550Z,3776
2022-07-25T10:58:16.959Z,4564
2022-07-25T10:59:03.758Z,3776
2022-07-25T11:02:03.601Z,5030
2022-07-25T11:03:03.615Z,4086
2022-07-25T11:04:03.531Z,4222
2022-07-25T11:07:03.539Z,3894
2022-07-25T11:08:20.966Z,3919
2022-07-25T11:09:03.802Z,4817
2022-07-25T11:12:03.546Z,5054
2022-07-25T11:13:03.552Z,5197
2022-07-25T11:14:03.550Z,4327
2022-07-25T11:17:03.562Z,4591
2022-07-25T11:18:03.534Z,3828
2022-07-25T11:19:03.900Z,3828
2022-07-25T11:22:03.541Z,4170
2022-07-25T11:23:03.548Z,5167
2022-07-25T11:24:03.565Z,5307
2022-07-25T11:27:06.142Z,4068
2022-07-25T11:28:03.532Z,4178
2022-07-25T11:29:03.750Z,4926
2022-07-25T11:32:03.687Z,4802
2022-07-25T11:33:03.564Z,3905
2022-07-25T11:34:03.545Z,4578
2022-07-25T11:37:03.553Z,5141
2022-07-25T11:38:03.558Z,5282
2022-07-25T11:39:03.604Z,4517
2022-07-25T11:42:03.536Z,5587
2022-07-25T11:43:03.558Z,4504
2022-07-25T11:44:03.579Z,5646
2022-07-25T11:47:03.542Z,5843
2022-07-25T11:48:03.534Z,5895
2022-07-25T11:49:03.727Z,4874
2022-07-25T11:52:03.531Z,5483
2022-07-25T11:53:03.566Z,4452
2022-07-25T11:54:03.569Z,5604
2022-07-25T11:57:03.574Z,6350
2022-07-25T11:58:03.581Z,6417
2022-07-25T11:59:03.753Z,5096
2022-07-25T12:02:03.692Z,5843
2022-07-25T12:03:03.734Z,4874
2022-07-25T12:04:03.568Z,5951
2022-07-25T12:07:03.579Z,6038
2022-07-25T12:08:03.585Z,6165
2022-07-25T12:09:03.834Z,5096
2022-07-25T12:12:03.569Z,4551
2022-07-25T12:13:03.570Z,5587
2022-07-25T12:14:03.606Z,4666
2022-07-25T12:19:03.847Z,6003
2022-07-25T12:22:03.581Z,5872
2022-07-25T12:23:03.562Z,5739
2022-07-25T12:24:03.576Z,5872
2022-07-25T12:28:03.595Z,5767
2022-07-25T12:29:03.887Z,5712
2022-07-25T12:32:03.576Z,6099
2022-07-25T12:34:03.591Z,6038
2022-07-25T12:38:03.584Z,4888
2022-07-25T12:39:03.791Z,5968
2022-07-25T12:42:03.521Z,6297
2022-07-25T12:43:03.591Z,6183
2022-07-25T12:44:03.593Z,5630
2022-07-25T12:48:03.568Z,5167
2022-07-25T12:49:03.848Z,6368
2022-07-25T12:54:03.656Z,6145
2022-07-25T12:59:03.839Z,6368
2022-07-25T13:04:03.637Z,6417
2022-07-25T13:09:03.696Z,5307
2022-07-25T13:14:03.648Z,6183
2022-07-25T13:19:03.688Z,5603
2022-07-25T13:24:03.590Z,5131
2022-07-25T13:29:03.664Z,6555
2022-07-25T13:34:03.656Z,5116
2022-07-25T13:39:03.763Z,7126
2022-07-25T13:44:03.630Z,5393
2022-07-25T13:49:03.941Z,7154
2022-07-25T13:54:03.635Z,6977
2022-07-25T13:59:03.698Z,6882
2022-07-25T14:04:03.637Z,6882
2022-07-25T14:09:03.874Z,5466
2022-07-25T14:14:03.645Z,6911
2022-07-25T14:19:03.796Z,7440
2022-07-25T14:24:03.665Z,5674
2022-07-25T14:39:03.753Z,7567
2022-07-25T14:49:03.705Z,6249
2022-07-25T14:54:03.669Z,7961
2022-07-25T15:09:03.835Z,6219
2022-07-25T15:24:03.707Z,7884
2022-07-25T15:39:03.899Z,7405
2022-07-25T15:49:03.887Z,7369
2022-07-25T15:54:03.702Z,5297
2022-07-25T16:01:07.816Z,7447
2022-07-25T16:03:03.677Z,7626
2022-07-25T16:09:03.791Z,5843
2022-07-25T16:54:03.740Z,6053
2022-07-25T17:09:03.932Z,4373
2022-07-25T17:39:03.719Z,2541
2022-07-25T17:49:03.720Z,1401
2022-07-25T17:54:04.029Z,1173
